Time;durP1;ratioP1;P1;durP2;ratioP2;P2;SDS_P1;SDS_P2;PMS_P1;PMS_P2;Temp;Humidity;BMP_temperature;BMP_pressure;BME280_temperature;BME280_humidity;BME280_pressure;Samples;Min_cycle;Max_cycle;Signal;HPM_P1;HPM_P2
2022/04/25 00:00:59;;;;;;;11.43;6.90;;;9.50;99.90;;;;;;6300512;22;20421;-36
2022/04/25 00:03:26;;;;;;;14.93;7.60;;;9.40;99.90;;;;;;6299987;22;20468;-34
2022/04/25 00:05:54;;;;;;;20.93;6.80;;;9.50;99.90;;;;;;6302734;22;20430;-37
2022/04/25 00:08:21;;;;;;;10.10;6.50;;;9.40;99.90;;;;;;6302547;22;20428;-38
2022/04/25 00:10:50;;;;;;;9.80;6.90;;;9.40;99.90;;;;;;6302278;22;20477;-38
2022/04/25 00:13:17;;;;;;;7.53;6.33;;;9.40;99.90;;;;;;6303379;22;20390;-36
2022/04/25 00:15:44;;;;;;;20.03;7.20;;;9.30;99.90;;;;;;6302646;22;20432;-37
2022/04/25 00:18:10;;;;;;;12.33;7.03;;;9.30;99.90;;;;;;6301831;22;20413;-37
2022/04/25 00:20:37;;;;;;;13.07;7.50;;;9.30;99.90;;;;;;6303132;22;20405;-38
2022/04/25 00:23:11;;;;;;;12.93;7.13;;;9.30;99.90;;;;;;6302398;22;20466;-43
2022/04/25 00:25:41;;;;;;;12.70;7.13;;;9.30;99.90;;;;;;6303099;22;20386;-38
2022/04/25 00:28:11;;;;;;;17.80;7.27;;;9.30;99.90;;;;;;6302796;22;20410;-38
2022/04/25 00:30:38;;;;;;;12.10;6.43;;;9.20;99.90;;;;;;6302461;22;20374;-37
2022/04/25 00:33:05;;;;;;;8.47;6.90;;;9.20;99.90;;;;;;6302472;22;20405;-38
2022/04/25 00:35:31;;;;;;;17.53;6.97;;;9.20;99.90;;;;;;6302958;22;20391;-33
2022/04/25 00:37:58;;;;;;;15.60;7.27;;;9.20;99.90;;;;;;6303181;22;20406;-37
2022/04/25 00:40:26;;;;;;;13.10;6.40;;;9.20;99.90;;;;;;6302580;22;20428;-38
2022/04/25 00:42:55;;;;;;;12.40;8.20;;;9.10;99.90;;;;;;6301883;22;20434;-36
2022/04/25 00:45:25;;;;;;;9.70;7.60;;;9.10;99.90;;;;;;6302185;22;20452;-37
2022/04/25 00:47:51;;;;;;;16.00;7.87;;;9.20;99.90;;;;;;6302386;22;20450;-36
2022/04/25 00:50:18;;;;;;;15.43;7.90;;;9.10;99.90;;;;;;6302516;22;20432;-36
2022/04/25 00:52:47;;;;;;;12.60;7.87;;;9.10;99.90;;;;;;6302236;22;20371;-35
2022/04/25 00:55:14;;;;;;;12.03;8.37;;;9.10;99.90;;;;;;6301766;22;20437;-37
2022/04/25 00:57:42;;;;;;;9.93;6.83;;;9.20;99.90;;;;;;6301682;22;20394;-38
2022/04/25 01:00:11;;;;;;;13.30;8.87;;;9.20;99.90;;;;;;6301762;22;20402;-37
2022/04/25 01:02:38;;;;;;;20.03;8.30;;;9.20;99.90;;;;;;6301879;22;20428;-37
2022/04/25 01:05:06;;;;;;;17.17;8.13;;;9.20;99.90;;;;;;6302297;22;20386;-37
2022/04/25 01:07:37;;;;;;;15.20;8.30;;;9.20;99.90;;;;;;6302302;22;20426;-46
2022/04/25 01:10:06;;;;;;;14.10;8.80;;;9.10;99.90;;;;;;6302545;22;20395;-34
2022/04/25 01:12:34;;;;;;;11.20;8.43;;;9.10;99.90;;;;;;6302131;22;20430;-35
2022/04/25 01:15:06;;;;;;;16.67;8.90;;;9.10;99.90;;;;;;6301886;22;20383;-37
2022/04/25 01:17:32;;;;;;;17.73;8.70;;;9.10;99.90;;;;;;6302059;22;20427;-37
2022/04/25 01:20:00;;;;;;;15.63;8.43;;;9.00;99.90;;;;;;6301933;22;20439;-37
2022/04/25 01:22:32;;;;;;;18.23;8.47;;;9.00;99.90;;;;;;6301959;22;20405;-38
2022/04/25 01:27:45;;;;;;;13.40;8.27;;;8.90;99.90;;;;;;6302242;22;20397;-38
2022/04/25 01:30:13;;;;;;;14.57;9.10;;;8.90;99.90;;;;;;6301964;22;20394;-37
2022/04/25 01:32:40;;;;;;;11.97;8.63;;;8.90;99.90;;;;;;6302446;22;20398;-37
2022/04/25 01:35:09;;;;;;;17.10;9.47;;;8.90;99.90;;;;;;6302510;22;20406;-36
2022/04/25 01:37:36;;;;;;;15.80;9.67;;;8.90;99.90;;;;;;6302414;22;20482;-38
2022/04/25 01:40:05;;;;;;;18.77;8.87;;;8.90;99.90;;;;;;6302486;22;20410;-37
2022/04/25 01:42:33;;;;;;;12.80;8.80;;;8.90;99.90;;;;;;6301817;22;20476;-36
2022/04/25 01:45:00;;;;;;;13.50;9.13;;;8.90;99.90;;;;;;6302529;22;20386;-37
2022/04/25 01:47:27;;;;;;;17.37;9.47;;;8.90;99.90;;;;;;6303835;22;20366;-38
2022/04/25 01:49:53;;;;;;;15.60;9.27;;;8.90;99.90;;;;;;6304046;22;20406;-36
2022/04/25 01:52:25;;;;;;;15.37;8.90;;;8.90;99.90;;;;;;6304029;22;20547;-35
2022/04/25 01:54:52;;;;;;;18.33;10.10;;;8.90;99.90;;;;;;6304305;22;20500;-35
2022/04/25 01:57:20;;;;;;;24.20;9.40;;;8.90;99.90;;;;;;6303747;22;20430;-34
2022/04/25 01:59:48;;;;;;;15.40;8.80;;;8.90;99.90;;;;;;6304276;22;20409;-36
2022/04/25 02:02:18;;;;;;;13.67;9.30;;;8.80;99.90;;;;;;6304132;22;20405;-38
2022/04/25 02:04:46;;;;;;;12.87;9.80;;;8.90;99.90;;;;;;6304291;22;20422;-36
2022/04/25 02:07:16;;;;;;;13.10;9.20;;;8.90;99.90;;;;;;6304074;22;21479;-40
2022/04/25 02:09:43;;;;;;;13.83;8.30;;;8.90;99.90;;;;;;6303888;22;20433;-33
2022/04/25 02:12:12;;;;;;;13.43;9.33;;;8.80;99.90;;;;;;6303837;22;20398;-38
2022/04/25 02:14:41;;;;;;;12.90;9.57;;;8.90;99.90;;;;;;6303661;22;20394;-38
2022/04/25 02:17:09;;;;;;;14.57;8.67;;;8.90;99.90;;;;;;6303462;22;20397;-37
2022/04/25 02:19:38;;;;;;;16.37;10.13;;;8.90;99.90;;;;;;6302766;22;20458;-36
2022/04/25 02:22:06;;;;;;;16.33;8.80;;;8.80;99.90;;;;;;6303705;22;20402;-39
2022/04/25 02:24:33;;;;;;;13.67;8.37;;;8.80;99.90;;;;;;6304007;22;20457;-37
2022/04/25 02:27:03;;;;;;;12.43;8.20;;;8.80;99.90;;;;;;6304501;22;20398;-35
2022/04/25 02:29:32;;;;;;;20.57;9.60;;;8.80;99.90;;;;;;6303855;22;20422;-36
2022/04/25 02:32:01;;;;;;;12.30;8.53;;;8.80;99.90;;;;;;6304180;22;20400;-36
2022/04/25 02:34:31;;;;;;;20.20;10.60;;;8.70;99.90;;;;;;6303926;22;20404;-38
2022/04/25 02:37:01;;;;;;;12.67;9.07;;;8.70;99.90;;;;;;6304564;22;20493;-38
2022/04/25 02:39:27;;;;;;;19.40;9.20;;;8.70;99.90;;;;;;6303847;22;20417;-36
2022/04/25 02:41:56;;;;;;;14.83;8.67;;;8.70;99.90;;;;;;6303898;22;20440;-38
2022/04/25 02:44:23;;;;;;;19.33;9.10;;;8.70;99.90;;;;;;6304149;22;20476;-36
2022/04/25 02:46:52;;;;;;;14.20;8.40;;;8.70;99.90;;;;;;6303933;22;20494;-39
2022/04/25 02:49:20;;;;;;;13.83;8.10;;;8.70;99.90;;;;;;6303958;22;20425;-35
2022/04/25 02:51:47;;;;;;;14.30;8.97;;;8.60;99.90;;;;;;6303011;22;20477;-41
2022/04/25 02:54:15;;;;;;;16.77;9.80;;;8.60;99.90;;;;;;6303781;22;20363;-38
2022/04/25 02:56:42;;;;;;;15.60;8.83;;;8.60;99.90;;;;;;6303100;22;20466;-40
2022/04/25 02:59:09;;;;;;;16.10;9.70;;;8.60;99.90;;;;;;6303609;22;20438;-38
2022/04/25 03:01:36;;;;;;;14.07;9.93;;;8.50;99.90;;;;;;6303529;22;20387;-39
2022/04/25 03:04:02;;;;;;;16.50;8.70;;;8.50;99.90;;;;;;6303516;22;20426;-37
2022/04/25 03:06:30;;;;;;;13.93;8.40;;;8.50;99.90;;;;;;6303860;22;20402;-37
2022/04/25 03:08:57;;;;;;;13.07;9.33;;;8.50;99.90;;;;;;6303806;22;20410;-38
2022/04/25 03:11:25;;;;;;;20.00;10.10;;;8.50;99.90;;;;;;6303730;22;20398;-35
2022/04/25 03:13:52;;;;;;;19.73;10.53;;;8.50;99.90;;;;;;6304152;22;20421;-35
2022/04/25 03:16:21;;;;;;;15.17;9.73;;;8.50;99.90;;;;;;6304066;22;20481;-38
2022/04/25 03:18:49;;;;;;;17.50;10.77;;;8.40;99.90;;;;;;6303518;22;20386;-36
2022/04/25 03:21:15;;;;;;;22.43;10.03;;;8.40;99.90;;;;;;6303686;22;20410;-37
2022/04/25 03:23:51;;;;;;;17.63;10.97;;;8.30;99.90;;;;;;6303536;22;20456;-39
2022/04/25 03:26:17;;;;;;;16.43;9.30;;;8.40;99.90;;;;;;6303364;22;20501;-38
2022/04/25 03:28:47;;;;;;;15.50;9.73;;;8.30;99.90;;;;;;6303303;22;20394;-37
2022/04/25 03:31:14;;;;;;;22.07;10.30;;;8.30;99.90;;;;;;6303537;22;20433;-39
2022/04/25 03:33:40;;;;;;;20.77;10.80;;;8.20;99.90;;;;;;6303082;22;20428;-40
2022/04/25 03:36:09;;;;;;;16.47;9.10;;;8.20;99.90;;;;;;6302678;22;20418;-36
2022/04/25 03:38:35;;;;;;;19.43;10.40;;;8.20;99.90;;;;;;6303356;22;20414;-36
2022/04/25 03:41:03;;;;;;;14.53;9.90;;;8.10;99.90;;;;;;6302834;22;20428;-42
2022/04/25 03:43:31;;;;;;;14.50;9.93;;;8.20;99.90;;;;;;6302823;22;20437;-42
2022/04/25 03:46:03;;;;;;;17.60;9.70;;;8.20;99.90;;;;;;6303166;22;20405;-36
2022/04/25 03:48:29;;;;;;;15.47;9.80;;;8.10;99.90;;;;;;6303110;22;20410;-38
2022/04/25 03:50:56;;;;;;;16.90;9.77;;;8.10;99.90;;;;;;6302200;22;20456;-38
2022/04/25 03:53:24;;;;;;;13.50;9.70;;;8.10;99.90;;;;;;6302665;22;20406;-38
2022/04/25 03:58:36;;;;;;;18.83;10.07;;;8.10;99.90;;;;;;6302260;22;20524;-36
2022/04/25 04:01:03;;;;;;;17.20;10.27;;;8.10;99.90;;;;;;6302782;22;20466;-37
2022/04/25 04:03:34;;;;;;;26.03;12.00;;;8.10;99.90;;;;;;6302642;22;20513;-38
2022/04/25 04:06:01;;;;;;;16.47;10.37;;;8.10;99.90;;;;;;6302974;22;20377;-37
2022/04/25 04:08:28;;;;;;;18.13;10.17;;;8.10;99.90;;;;;;6301934;22;20399;-40
2022/04/25 04:11:03;;;;;;;19.70;10.80;;;8.10;99.90;;;;;;6302545;22;20418;-37
2022/04/25 04:13:32;;;;;;;15.90;11.37;;;8.10;99.90;;;;;;6302458;22;20442;-37
2022/04/25 04:16:00;;;;;;;13.50;9.97;;;8.10;99.90;;;;;;6302148;22;20422;-36
2022/04/25 04:18:27;;;;;;;16.70;10.23;;;8.10;99.90;;;;;;6302689;22;20450;-37
2022/04/25 04:20:56;;;;;;;19.17;10.90;;;8.10;99.90;;;;;;6302650;22;20441;-38
2022/04/25 04:23:26;;;;;;;17.80;9.83;;;8.10;99.90;;;;;;6302469;22;20441;-37
2022/04/25 04:25:54;;;;;;;19.53;9.87;;;8.00;99.90;;;;;;6302313;22;20402;-39
2022/04/25 04:28:23;;;;;;;16.87;10.20;;;8.00;99.90;;;;;;6302701;22;20420;-36
2022/04/25 04:30:49;;;;;;;20.67;9.67;;;8.00;99.90;;;;;;6302550;22;20403;-38
2022/04/25 04:33:17;;;;;;;19.60;11.00;;;8.00;99.90;;;;;;6302358;22;20409;-36
2022/04/25 04:38:31;;;;;;;21.43;11.57;;;8.00;99.90;;;;;;6302871;22;20440;-37
2022/04/25 04:40:58;;;;;;;15.20;9.20;;;8.10;99.90;;;;;;6302959;22;20398;-37
2022/04/25 04:43:26;;;;;;;14.20;8.83;;;8.10;99.90;;;;;;6302734;22;20436;-38
2022/04/25 04:45:55;;;;;;;15.13;8.53;;;8.10;99.90;;;;;;6302639;22;20402;-38
2022/04/25 04:48:24;;;;;;;14.80;8.90;;;8.00;99.90;;;;;;6301371;22;20483;-37
2022/04/25 04:50:55;;;;;;;17.53;10.97;;;8.10;99.90;;;;;;6302540;22;20392;-37
2022/04/25 04:53:22;;;;;;;15.00;9.43;;;8.10;99.90;;;;;;6302809;22;20450;-40
2022/04/25 04:55:51;;;;;;;14.67;9.30;;;8.20;99.90;;;;;;6302514;22;20394;-38
2022/04/25 04:58:18;;;;;;;15.57;9.80;;;8.20;99.90;;;;;;6302803;22;20406;-38
2022/04/25 05:00:48;;;;;;;14.63;9.57;;;8.20;99.90;;;;;;6302298;22;20406;-39
2022/04/25 05:03:15;;;;;;;18.50;10.37;;;8.20;99.90;;;;;;6302101;22;20436;-36
2022/04/25 05:05:44;;;;;;;17.37;9.70;;;8.30;99.90;;;;;;6302249;22;20529;-36
2022/04/25 05:08:12;;;;;;;16.60;9.50;;;8.30;99.90;;;;;;6301847;22;20470;-36
2022/04/25 05:10:43;;;;;;;15.07;9.27;;;8.40;99.90;;;;;;6302551;22;20402;-38
2022/04/25 05:13:15;;;;;;;18.17;10.37;;;8.30;99.90;;;;;;6302622;22;20397;-37
2022/04/25 05:15:42;;;;;;;15.43;9.00;;;8.40;99.90;;;;;;6302214;22;20413;-37
2022/04/25 05:18:08;;;;;;;18.90;9.60;;;8.40;99.90;;;;;;6302202;22;20394;-38
2022/04/25 05:20:37;;;;;;;17.90;10.87;;;8.40;99.90;;;;;;6302140;22;20399;-37
2022/04/25 05:23:05;;;;;;;18.83;10.87;;;8.50;99.90;;;;;;6301723;22;20452;-37
2022/04/25 05:25:35;;;;;;;13.70;9.10;;;8.50;99.90;;;;;;6302024;22;20437;-39
2022/04/25 05:28:03;;;;;;;13.70;9.67;;;8.50;99.90;;;;;;6302360;22;20506;-37
2022/04/25 05:30:33;;;;;;;17.03;10.83;;;8.60;99.90;;;;;;6302437;22;20410;-39
2022/04/25 05:33:03;;;;;;;19.70;9.83;;;8.60;99.90;;;;;;6302055;22;20426;-38
2022/04/25 05:35:31;;;;;;;19.70;9.90;;;8.60;99.90;;;;;;6302267;22;20390;-38
2022/04/25 05:37:58;;;;;;;16.90;9.80;;;8.70;99.90;;;;;;6302455;22;20398;-38
2022/04/25 05:40:26;;;;;;;13.17;7.33;;;8.70;99.90;;;;;;6302278;22;20412;-38
2022/04/25 05:42:56;;;;;;;12.57;8.10;;;8.70;99.90;;;;;;6302378;22;20406;-38
2022/04/25 05:45:24;;;;;;;17.47;10.10;;;8.80;99.90;;;;;;6302274;22;20444;-37
2022/04/25 05:47:54;;;;;;;14.40;9.00;;;8.80;99.90;;;;;;6302175;22;20390;-34
2022/04/25 05:53:11;;;;;;;19.57;9.47;;;8.80;99.90;;;;;;6302499;22;20369;-35
2022/04/25 05:55:42;;;;;;;12.47;8.53;;;8.90;99.90;;;;;;6301602;22;20426;-38
2022/04/25 05:58:09;;;;;;;14.10;8.40;;;8.90;99.90;;;;;;6302434;22;20406;-35
2022/04/25 06:00:36;;;;;;;16.00;8.43;;;9.00;99.90;;;;;;6301144;22;20426;-37
2022/04/25 06:03:03;;;;;;;13.30;8.87;;;9.00;99.90;;;;;;6287396;22;20382;-37
2022/04/25 06:05:30;;;;;;;14.07;8.20;;;9.10;99.90;;;;;;6284054;22;20494;-40
2022/04/25 06:07:57;;;;;;;17.00;9.10;;;9.20;99.90;;;;;;6278331;22;20398;-38
2022/04/25 06:10:25;;;;;;;16.70;7.30;;;9.20;99.90;;;;;;6280741;22;20453;-39
2022/04/25 06:12:54;;;;;;;13.87;7.63;;;9.20;99.90;;;;;;6280347;22;20430;-38
2022/04/25 06:15:24;;;;;;;10.63;7.07;;;9.30;99.90;;;;;;6282836;22;20503;-40
2022/04/25 06:17:51;;;;;;;13.43;7.90;;;9.40;99.90;;;;;;6283193;22;20437;-38
2022/04/25 06:20:19;;;;;;;11.83;7.93;;;9.40;99.90;;;;;;6282696;22;20402;-39
2022/04/25 06:22:52;;;;;;;12.80;6.40;;;9.50;99.90;;;;;;6282078;22;20406;-38
2022/04/25 06:25:19;;;;;;;11.27;7.53;;;9.60;99.90;;;;;;6282693;22;20938;-38
2022/04/25 06:27:45;;;;;;;9.47;6.50;;;9.60;99.90;;;;;;6282762;22;20467;-39
2022/04/25 06:30:14;;;;;;;8.53;5.23;;;9.60;99.90;;;;;;6282071;22;20444;-39
2022/04/25 06:32:40;;;;;;;9.07;5.63;;;9.70;99.90;;;;;;6283749;22;20406;-38
2022/04/25 06:35:09;;;;;;;10.33;6.60;;;10.00;99.90;;;;;;6284231;22;20434;-39
2022/04/25 06:37:35;;;;;;;9.73;6.70;;;9.90;99.90;;;;;;6284216;22;20410;-38
2022/04/25 06:40:02;;;;;;;9.60;5.80;;;10.00;99.90;;;;;;6283980;22;20445;-40
2022/04/25 06:42:29;;;;;;;11.53;5.80;;;10.10;99.90;;;;;;6285407;22;20402;-40
2022/04/25 06:44:56;;;;;;;13.20;6.50;;;10.10;99.90;;;;;;6283737;22;20495;-39
2022/04/25 06:47:24;;;;;;;12.97;6.57;;;10.20;99.90;;;;;;6284209;22;20456;-39
2022/04/25 06:49:52;;;;;;;10.23;6.00;;;10.20;99.90;;;;;;6284264;22;20875;-38
2022/04/25 06:52:20;;;;;;;13.37;7.10;;;10.30;99.90;;;;;;6282979;22;20414;-39
2022/04/25 06:54:47;;;;;;;11.13;5.67;;;10.40;99.90;;;;;;6283457;22;20436;-39
2022/04/25 06:57:14;;;;;;;7.87;5.87;;;10.40;99.90;;;;;;6283701;22;20426;-39
2022/04/25 06:59:42;;;;;;;10.77;6.53;;;10.50;99.90;;;;;;6284870;22;20382;-39
2022/04/25 07:02:10;;;;;;;11.23;5.67;;;10.60;99.90;;;;;;6283979;22;20489;-39
2022/04/25 07:04:38;;;;;;;10.33;6.17;;;10.70;99.90;;;;;;6283557;22;20430;-36
2022/04/25 07:07:05;;;;;;;9.07;5.93;;;10.70;99.90;;;;;;6301919;22;20398;-35
2022/04/25 07:09:32;;;;;;;9.30;6.07;;;10.70;99.90;;;;;;6303491;22;20813;-51
2022/04/25 07:11:59;;;;;;;8.73;5.43;;;10.70;99.90;;;;;;6303223;22;20432;-40
2022/04/25 07:14:27;;;;;;;9.80;6.07;;;10.60;99.90;;;;;;6303184;22;20413;-38
2022/04/25 07:16:57;;;;;;;8.60;6.17;;;10.50;99.90;;;;;;6302954;22;20430;-39
2022/04/25 07:19:24;;;;;;;10.90;6.10;;;10.40;99.90;;;;;;6303440;22;20399;-38
2022/04/25 07:30:05;;;;;;;10.13;4.97;;;10.60;99.90;;;;;;6303641;22;20417;-38
2022/04/25 07:32:32;;;;;;;12.83;5.20;;;10.60;99.90;;;;;;6303346;22;20433;-37
2022/04/25 07:35:01;;;;;;;7.30;5.37;;;10.60;99.90;;;;;;6303344;22;20417;-39
2022/04/25 07:37:33;;;;;;;7.50;5.23;;;10.60;99.90;;;;;;6303488;22;20402;-39
2022/04/25 07:40:00;;;;;;;10.47;5.90;;;10.60;99.90;;;;;;6303784;22;20416;-41
2022/04/25 07:42:29;;;;;;;12.73;5.40;;;10.60;99.90;;;;;;6303759;22;20417;-45
2022/04/25 07:44:56;;;;;;;9.27;5.30;;;10.60;99.90;;;;;;6302778;22;20513;-37
2022/04/25 07:47:23;;;;;;;10.17;5.67;;;10.60;99.90;;;;;;6303072;22;20428;-36
2022/04/25 07:49:50;;;;;;;5.67;4.20;;;10.70;99.90;;;;;;6303149;22;20422;-46
2022/04/25 07:52:17;;;;;;;7.67;5.33;;;10.80;99.90;;;;;;6303471;22;20414;-39
2022/04/25 07:54:45;;;;;;;9.10;5.27;;;10.80;99.90;;;;;;6302880;22;20666;-39
2022/04/25 07:57:12;;;;;;;12.97;6.10;;;10.90;99.90;;;;;;6303217;22;20382;-37
2022/04/25 07:59:41;;;;;;;6.80;4.43;;;10.90;99.90;;;;;;6302961;22;20422;-39
2022/04/25 08:02:09;;;;;;;9.30;5.43;;;10.90;99.90;;;;;;6303270;22;20378;-40
2022/04/25 08:04:36;;;;;;;8.40;4.63;;;10.90;99.90;;;;;;6293305;22;20449;-38
2022/04/25 08:07:03;;;;;;;8.53;4.87;;;10.90;99.90;;;;;;6278873;22;20406;-39
2022/04/25 08:09:30;;;;;;;14.23;6.07;;;10.90;99.90;;;;;;6280285;22;20438;-37
2022/04/25 08:20:12;;;;;;;6.03;4.57;;;11.00;99.90;;;;;;6280762;22;20420;-40
2022/04/25 08:22:39;;;;;;;7.13;4.87;;;11.10;99.90;;;;;;6280482;22;20509;-39
2022/04/25 08:25:07;;;;;;;11.77;5.40;;;11.10;99.90;;;;;;6279699;22;20445;-39
2022/04/25 08:27:35;;;;;;;8.27;5.10;;;11.20;99.90;;;;;;6282555;22;20426;-38
2022/04/25 08:30:02;;;;;;;15.63;5.67;;;11.30;99.90;;;;;;6282879;22;20391;-41
2022/04/25 08:32:33;;;;;;;14.97;5.20;;;11.40;99.90;;;;;;6282279;22;20430;-40
2022/04/25 08:35:00;;;;;;;7.67;4.43;;;11.40;99.90;;;;;;6281653;22;20400;-40
2022/04/25 08:37:26;;;;;;;6.37;3.90;;;11.60;99.90;;;;;;6279964;22;20441;-39
2022/04/25 08:39:54;;;;;;;9.33;5.20;;;11.70;99.90;;;;;;6279750;22;20394;-38
2022/04/25 08:42:22;;;;;;;6.27;5.47;;;12.00;99.90;;;;;;6283087;22;20472;-38
2022/04/25 08:44:52;;;;;;;5.37;4.53;;;12.20;99.90;;;;;;6284157;22;20427;-38
2022/04/25 08:47:19;;;;;;;8.27;4.50;;;12.20;99.90;;;;;;6282613;22;20444;-37
2022/04/25 08:49:46;;;;;;;8.90;4.47;;;12.20;99.90;;;;;;6282445;22;20425;-39
2022/04/25 08:52:14;;;;;;;10.37;4.90;;;12.20;99.90;;;;;;6279032;22;20410;-37
2022/04/25 08:54:42;;;;;;;9.07;4.90;;;12.30;99.90;;;;;;6278677;22;20457;-38
2022/04/25 08:57:10;;;;;;;9.07;5.83;;;12.20;99.90;;;;;;6294267;22;20379;-34
2022/04/25 08:59:38;;;;;;;9.33;4.03;;;12.20;99.90;;;;;;6301408;22;20418;-37
2022/04/25 09:02:07;;;;;;;11.57;5.30;;;12.30;99.90;;;;;;6301443;22;20429;-52
2022/04/25 09:04:34;;;;;;;9.90;5.13;;;12.30;99.90;;;;;;6301295;22;20477;-57
2022/04/25 09:07:01;;;;;;;5.57;4.50;;;12.60;99.90;;;;;;6300948;22;20433;-54
2022/04/25 09:09:28;;;;;;;5.13;4.27;;;13.10;99.90;;;;;;6301651;22;20395;-54
2022/04/25 09:12:11;;;;;;;7.73;4.73;;;13.60;99.90;;;;;;6302070;22;20420;-54
2022/04/25 09:14:40;;;;;;;5.97;4.17;;;14.00;99.90;;;;;;6302015;22;20398;-56
2022/04/25 09:17:09;;;;;;;8.70;4.50;;;14.10;99.90;;;;;;6301857;22;20433;-51
2022/04/25 09:19:37;;;;;;;5.10;3.63;;;14.20;99.90;;;;;;6302165;22;20592;-54
2022/04/25 09:22:04;;;;;;;7.60;4.53;;;14.50;99.90;;;;;;6302429;22;20508;-54
2022/04/25 09:24:33;;;;;;;12.17;4.43;;;14.70;99.90;;;;;;6302095;22;20420;-57
2022/04/25 09:27:12;;;;;;;5.03;4.00;;;14.90;99.90;;;;;;6301870;22;20505;-56
2022/04/25 09:29:40;;;;;;;7.07;3.80;;;15.10;99.90;;;;;;6301446;22;20413;-54
2022/04/25 09:32:09;;;;;;;8.60;4.70;;;15.20;99.90;;;;;;6301293;22;20651;-56
2022/04/25 09:37:40;;;;;;;6.20;4.23;;;15.30;99.90;;;;;;6300460;22;20410;-54
2022/04/25 09:40:08;;;;;;;6.83;3.97;;;15.40;99.90;;;;;;6300917;22;20374;-54
2022/04/25 09:42:36;;;;;;;8.97;4.03;;;15.20;99.90;;;;;;6299495;22;20435;-52
2022/04/25 09:45:05;;;;;;;5.23;3.43;;;15.10;99.90;;;;;;6300103;22;20404;-48
2022/04/25 09:47:35;;;;;;;6.07;3.50;;;15.00;99.90;;;;;;6301515;22;20873;-57
2022/04/25 09:50:08;;;;;;;5.10;3.40;;;14.70;99.90;;;;;;6300829;22;20414;-55
2022/04/25 09:52:51;;;;;;;7.10;3.47;;;14.50;99.90;;;;;;6301048;22;20410;-51
2022/04/25 09:55:18;;;;;;;6.43;3.90;;;14.30;99.90;;;;;;6301074;22;20378;-55
2022/04/25 09:57:46;;;;;;;4.87;3.13;;;14.20;99.90;;;;;;6300638;22;20422;-54
2022/04/25 10:00:30;;;;;;;8.03;4.40;;;14.30;99.90;;;;;;6301387;22;20371;-55
2022/04/25 10:03:00;;;;;;;6.43;4.13;;;14.50;99.90;;;;;;6301438;22;20440;-54
2022/04/25 10:05:42;;;;;;;6.17;3.30;;;14.70;99.90;;;;;;6301201;22;20448;-52
2022/04/25 10:08:11;;;;;;;8.50;4.97;;;14.90;99.90;;;;;;6302513;22;20444;-52
2022/04/25 10:10:46;;;;;;;9.67;3.53;;;14.90;99.90;;;;;;6302771;22;20437;-54
2022/04/25 10:13:14;;;;;;;7.03;3.73;;;15.10;99.90;;;;;;6302853;22;20460;-55
2022/04/25 10:15:43;;;;;;;7.93;3.67;;;15.30;99.90;;;;;;6302847;22;20397;-56
2022/04/25 10:18:12;;;;;;;9.40;3.23;;;15.50;99.90;;;;;;6303127;22;20418;-56
2022/04/25 10:20:44;;;;;;;5.53;3.63;;;15.70;99.90;;;;;;6303300;22;20439;-61
2022/04/25 10:23:13;;;;;;;4.57;3.40;;;15.80;99.90;;;;;;6303344;22;20422;-50
2022/04/25 10:25:42;;;;;;;6.67;3.77;;;15.80;99.90;;;;;;6303469;22;20430;-57
2022/04/25 10:28:14;;;;;;;6.80;4.30;;;15.80;99.90;;;;;;6302406;22;20521;-53
2022/04/25 10:30:46;;;;;;;7.10;3.70;;;15.80;99.90;;;;;;6303266;22;20386;-58
2022/04/25 10:33:19;;;;;;;4.60;4.20;;;15.80;99.90;;;;;;6304071;22;20426;-53
2022/04/25 10:35:47;;;;;;;4.10;3.53;;;15.90;99.90;;;;;;6304037;22;20402;-54
2022/04/25 10:38:49;;;;;;;4.03;3.10;;;15.90;99.90;;;;;;6303952;22;20421;-56
2022/04/25 10:44:49;;;;;;;4.40;3.53;;;16.00;99.90;;;;;;6304142;22;20413;-55
2022/04/25 10:47:18;;;;;;;6.23;3.87;;;16.10;99.90;;;;;;6303205;22;20422;-55
2022/04/25 10:49:48;;;;;;;3.93;2.63;;;16.10;99.90;;;;;;6302597;22;20426;-54
2022/04/25 10:52:53;;;;;;;9.20;3.47;;;16.20;99.90;;;;;;6303031;22;20394;-53
2022/04/25 10:55:23;;;;;;;5.57;3.70;;;16.20;99.90;;;;;;6297175;22;20417;-53
2022/04/25 10:58:26;;;;;;;4.40;2.90;;;16.20;99.90;;;;;;6302783;22;20402;-56
2022/04/25 11:00:57;;;;;;;6.70;3.63;;;16.10;99.90;;;;;;6303321;22;20382;-50
2022/04/25 11:03:32;;;;;;;6.10;3.53;;;16.10;99.90;;;;;;6303020;22;20378;-52
2022/04/25 11:06:02;;;;;;;8.53;4.80;;;16.20;99.90;;;;;;6303596;22;20429;-53
2022/04/25 11:08:34;;;;;;;11.17;4.17;;;16.30;99.90;;;;;;6302999;22;20389;-46
2022/04/25 11:11:04;;;;;;;6.80;3.43;;;16.20;99.90;;;;;;6303537;22;20390;-48
2022/04/25 11:13:33;;;;;;;5.30;3.33;;;16.20;99.90;;;;;;6301894;22;20386;-56
2022/04/25 11:16:14;;;;;;;4.50;3.50;;;16.20;99.90;;;;;;6301836;22;20429;-54
2022/04/25 11:18:41;;;;;;;8.93;3.43;;;16.30;99.90;;;;;;6300717;22;20366;-55
2022/04/25 11:21:12;;;;;;;5.63;3.37;;;16.20;99.90;;;;;;6302156;22;20410;-55
2022/04/25 11:23:48;;;;;;;5.40;2.90;;;16.30;99.90;;;;;;6302727;22;20387;-56
2022/04/25 11:27:03;;;;;;;4.67;3.10;;;16.40;99.90;;;;;;6301961;22;20405;-56
2022/04/25 11:29:30;;;;;;;3.50;2.77;;;16.40;99.90;;;;;;6209457;23;20547;-54
2022/04/25 11:32:22;;;;;;;6.43;3.40;;;16.60;99.90;;;;;;6209729;23;20440;-53
2022/04/25 11:34:49;;;;;;;4.10;3.17;;;16.70;99.90;;;;;;6266465;22;20422;-53
2022/04/25 11:37:22;;;;;;;5.67;3.07;;;16.70;99.90;;;;;;6302507;22;20394;-58
2022/04/25 11:40:03;;;;;;;7.60;3.53;;;16.80;99.90;;;;;;6302690;22;20378;-51
2022/04/25 11:42:31;;;;;;;4.77;3.40;;;16.70;99.90;;;;;;6302118;22;20428;-59
2022/04/25 11:44:59;;;;;;;6.20;3.47;;;16.70;99.90;;;;;;6302396;22;20398;-56
2022/04/25 11:47:26;;;;;;;4.00;3.00;;;16.80;99.90;;;;;;6302529;22;20429;-52
2022/04/25 11:49:58;;;;;;;7.03;3.67;;;16.80;99.90;;;;;;6302319;22;20410;-55
2022/04/25 11:52:28;;;;;;;6.33;4.60;;;16.80;99.90;;;;;;6302861;22;20391;-54
2022/04/25 11:54:56;;;;;;;6.37;3.30;;;16.70;99.90;;;;;;6302674;22;20454;-56
2022/04/25 11:57:23;;;;;;;10.50;3.73;;;16.80;99.90;;;;;;6302083;22;20405;-56
2022/04/25 12:00:10;;;;;;;4.73;2.87;;;16.90;99.90;;;;;;6302260;22;20394;-52
2022/04/25 12:02:39;;;;;;;7.17;3.70;;;17.00;99.90;;;;;;6302292;22;20466;-54
2022/04/25 12:05:07;;;;;;;7.13;3.93;;;17.00;99.90;;;;;;6302130;22;20398;-56
2022/04/25 12:07:36;;;;;;;10.80;3.80;;;17.20;99.90;;;;;;6302231;22;20430;-53
2022/04/25 12:15:40;;;;;;;7.83;4.60;;;17.30;99.90;;;;;;6302844;22;20377;-55
2022/04/25 12:18:18;;;;;;;6.03;3.87;;;17.40;99.90;;;;;;6301500;22;20390;-55
2022/04/25 12:20:47;;;;;;;3.93;3.53;;;17.60;99.90;;;;;;6302055;22;20413;-55
2022/04/25 12:23:23;;;;;;;5.23;3.47;;;17.60;98.90;;;;;;6301787;22;20433;-57
2022/04/25 12:25:50;;;;;;;4.90;4.10;;;17.50;98.70;;;;;;6301153;22;20393;-57
2022/04/25 12:28:19;;;;;;;4.27;3.57;;;17.40;98.70;;;;;;6300726;22;20406;-58
2022/04/25 12:30:57;;;;;;;4.30;3.17;;;17.30;98.80;;;;;;6299804;22;20402;-55
2022/04/25 12:33:28;;;;;;;5.17;3.03;;;17.30;99.40;;;;;;6300810;22;20430;-53
2022/04/25 12:36:14;;;;;;;6.60;3.40;;;17.20;99.50;;;;;;6301763;22;20418;-51
2022/04/25 12:38:44;;;;;;;5.97;3.50;;;17.20;99.50;;;;;;6301458;22;20425;-54
2022/04/25 12:41:20;;;;;;;5.70;4.57;;;17.20;99.60;;;;;;6300608;22;20425;-53
2022/04/25 12:43:49;;;;;;;7.23;3.77;;;17.20;99.80;;;;;;6300555;22;20456;-61
2022/04/25 12:46:18;;;;;;;4.93;3.77;;;17.10;99.80;;;;;;6299956;22;20437;-56
2022/04/25 12:49:03;;;;;;;5.73;3.67;;;17.10;99.50;;;;;;6300044;22;20402;-51
2022/04/25 12:51:58;;;;;;;7.27;3.37;;;17.30;99.00;;;;;;6301076;22;20397;-55
2022/04/25 12:54:30;;;;;;;3.30;2.97;;;17.20;99.00;;;;;;6296654;22;20402;-52
2022/04/25 12:57:09;;;;;;;12.10;5.07;;;17.30;98.80;;;;;;6301803;22;20392;-54
2022/04/25 12:59:37;;;;;;;4.75;3.30;;;17.20;98.50;;;;;;6299349;22;20387;-52
2022/04/25 13:02:10;;;;;;;5.57;3.63;;;17.10;98.60;;;;;;6298820;22;20187;-56
2022/04/25 13:04:51;;;;;;;4.57;3.30;;;17.00;99.00;;;;;;6300439;22;20433;-53
2022/04/25 13:07:19;;;;;;;7.37;4.60;;;16.90;99.00;;;;;;6300985;22;20453;-55
2022/04/25 13:09:47;;;;;;;10.97;3.50;;;16.90;99.00;;;;;;6299126;22;20402;-53
2022/04/25 13:12:15;;;;;;;6.33;4.50;;;16.80;98.90;;;;;;6301014;22;20398;-58
2022/04/25 13:14:42;;;;;;;4.57;3.83;;;16.70;99.50;;;;;;6301810;22;20446;-57
2022/04/25 13:17:09;;;;;;;3.77;3.30;;;16.70;99.20;;;;;;6301529;22;20390;-56
2022/04/25 13:19:36;;;;;;;4.60;4.10;;;16.60;98.50;;;;;;6301492;22;20441;-55
2022/04/25 13:22:03;;;;;;;7.00;3.57;;;16.70;98.60;;;;;;6301903;22;20409;-57
2022/04/25 13:24:29;;;;;;;4.00;3.23;;;16.70;97.80;;;;;;6301534;22;20409;-60
2022/04/25 13:26:57;;;;;;;5.50;3.77;;;16.70;98.00;;;;;;6302031;22;20498;-55
2022/04/25 13:29:24;;;;;;;5.30;3.37;;;16.90;98.10;;;;;;6301658;22;20420;-52
2022/04/25 13:31:51;;;;;;;8.17;4.27;;;16.90;98.10;;;;;;6301585;22;20421;-56
2022/04/25 13:34:19;;;;;;;5.10;3.67;;;17.00;98.00;;;;;;6300994;22;20416;-55
2022/04/25 13:36:46;;;;;;;5.00;4.03;;;17.10;98.10;;;;;;6301706;22;20378;-54